sensor_id;sensor_type;location;lat;lon;timestamp;P1;durP1;ratioP1;P2;durP2;ratioP2
6376;SDS011;3221;48.858;10.128;2023-10-13T00:02:01;5.13;;;4.37;;
6376;SDS011;3221;48.858;10.128;2023-10-13T00:04:32;6.03;;;4.40;;
6376;SDS011;3221;48.858;10.128;2023-10-13T00:07:02;9.70;;;4.30;;
6376;SDS011;3221;48.858;10.128;2023-10-13T00:09:30;8.30;;;4.47;;
6376;SDS011;3221;48.858;10.128;2023-10-13T00:12:04;7.17;;;4.87;;
6376;SDS011;3221;48.858;10.128;2023-10-13T00:14:35;8.30;;;4.63;;
6376;SDS011;3221;48.858;10.128;2023-10-13T00:17:04;7.00;;;4.80;;
6376;SDS011;3221;48.858;10.128;2023-10-13T00:19:42;7.17;;;4.90;;
6376;SDS011;3221;48.858;10.128;2023-10-13T00:22:13;7.80;;;5.00;;
6376;SDS011;3221;48.858;10.128;2023-10-13T00:24:43;7.03;;;5.10;;
6376;SDS011;3221;48.858;10.128;2023-10-13T00:27:17;6.83;;;4.77;;
6376;SDS011;3221;48.858;10.128;2023-10-13T00:30:06;7.37;;;5.10;;
6376;SDS011;3221;48.858;10.128;2023-10-13T00:32:49;6.67;;;4.50;;
6376;SDS011;3221;48.858;10.128;2023-10-13T00:35:22;8.07;;;4.50;;
6376;SDS011;3221;48.858;10.128;2023-10-13T00:38:03;5.87;;;4.30;;
6376;SDS011;3221;48.858;10.128;2023-10-13T00:40:31;9.50;;;4.83;;
6376;SDS011;3221;48.858;10.128;2023-10-13T00:42:59;7.23;;;4.60;;
6376;SDS011;3221;48.858;10.128;2023-10-13T00:45:46;5.73;;;4.80;;
6376;SDS011;3221;48.858;10.128;2023-10-13T00:48:34;6.13;;;4.17;;
6376;SDS011;3221;48.858;10.128;2023-10-13T00:51:09;7.63;;;4.30;;
6376;SDS011;3221;48.858;10.128;2023-10-13T00:53:45;6.20;;;4.30;;
6376;SDS011;3221;48.858;10.128;2023-10-13T00:56:14;7.70;;;4.20;;
6376;SDS011;3221;48.858;10.128;2023-10-13T00:58:53;8.33;;;4.07;;
6376;SDS011;3221;48.858;10.128;2023-10-13T01:01:26;5.97;;;4.30;;
6376;SDS011;3221;48.858;10.128;2023-10-13T01:04:02;6.17;;;4.27;;
6376;SDS011;3221;48.858;10.128;2023-10-13T01:06:34;7.13;;;4.30;;
6376;SDS011;3221;48.858;10.128;2023-10-13T01:09:05;7.60;;;4.40;;
6376;SDS011;3221;48.858;10.128;2023-10-13T01:11:46;7.73;;;4.50;;
6376;SDS011;3221;48.858;10.128;2023-10-13T01:14:21;8.33;;;4.70;;
6376;SDS011;3221;48.858;10.128;2023-10-13T01:16:49;6.93;;;4.33;;
6376;SDS011;3221;48.858;10.128;2023-10-13T01:19:19;7.93;;;4.13;;
6376;SDS011;3221;48.858;10.128;2023-10-13T01:21:51;9.27;;;4.87;;
6376;SDS011;3221;48.858;10.128;2023-10-13T01:24:30;7.97;;;4.43;;
6376;SDS011;3221;48.858;10.128;2023-10-13T01:27:03;8.50;;;4.77;;
6376;SDS011;3221;48.858;10.128;2023-10-13T01:29:43;9.53;;;4.23;;
6376;SDS011;3221;48.858;10.128;2023-10-13T01:32:30;7.10;;;4.20;;
6376;SDS011;3221;48.858;10.128;2023-10-13T01:34:57;9.63;;;4.43;;
6376;SDS011;3221;48.858;10.128;2023-10-13T01:37:31;7.43;;;3.97;;
6376;SDS011;3221;48.858;10.128;2023-10-13T01:39:58;5.20;;;4.30;;
6376;SDS011;3221;48.858;10.128;2023-10-13T01:42:25;7.17;;;4.37;;
6376;SDS011;3221;48.858;10.128;2023-10-13T01:44:54;5.93;;;3.93;;
6376;SDS011;3221;48.858;10.128;2023-10-13T01:47:24;6.20;;;4.20;;
6376;SDS011;3221;48.858;10.128;2023-10-13T01:49:54;5.70;;;3.97;;
6376;SDS011;3221;48.858;10.128;2023-10-13T01:52:24;7.23;;;4.10;;
6376;SDS011;3221;48.858;10.128;2023-10-13T01:54:53;8.27;;;5.70;;
6376;SDS011;3221;48.858;10.128;2023-10-13T01:57:20;5.90;;;4.67;;
6376;SDS011;3221;48.858;10.128;2023-10-13T01:59:50;7.30;;;4.03;;
6376;SDS011;3221;48.858;10.128;2023-10-13T02:02:18;9.57;;;4.20;;
6376;SDS011;3221;48.858;10.128;2023-10-13T02:04:55;8.93;;;4.13;;
6376;SDS011;3221;48.858;10.128;2023-10-13T02:07:30;6.37;;;4.30;;
6376;SDS011;3221;48.858;10.128;2023-10-13T02:09:57;5.50;;;4.33;;
6376;SDS011;3221;48.858;10.128;2023-10-13T02:12:25;7.63;;;4.43;;
6376;SDS011;3221;48.858;10.128;2023-10-13T02:15:03;10.30;;;4.10;;
6376;SDS011;3221;48.858;10.128;2023-10-13T02:17:31;7.50;;;4.20;;
6376;SDS011;3221;48.858;10.128;2023-10-13T02:20:08;9.93;;;4.50;;
6376;SDS011;3221;48.858;10.128;2023-10-13T02:22:41;7.43;;;4.40;;
6376;SDS011;3221;48.858;10.128;2023-10-13T02:25:18;7.33;;;4.50;;
6376;SDS011;3221;48.858;10.128;2023-10-13T02:28:04;7.50;;;4.60;;
6376;SDS011;3221;48.858;10.128;2023-10-13T02:30:40;11.80;;;4.50;;
6376;SDS011;3221;48.858;10.128;2023-10-13T02:33:12;7.37;;;4.07;;
6376;SDS011;3221;48.858;10.128;2023-10-13T02:35:40;7.30;;;4.30;;
6376;SDS011;3221;48.858;10.128;2023-10-13T02:38:17;5.80;;;4.30;;
6376;SDS011;3221;48.858;10.128;2023-10-13T02:40:54;5.53;;;4.20;;
6376;SDS011;3221;48.858;10.128;2023-10-13T02:43:21;9.90;;;4.37;;
6376;SDS011;3221;48.858;10.128;2023-10-13T02:45:53;7.93;;;4.50;;
6376;SDS011;3221;48.858;10.128;2023-10-13T02:48:26;6.00;;;4.47;;
6376;SDS011;3221;48.858;10.128;2023-10-13T02:51:16;6.77;;;4.20;;
6376;SDS011;3221;48.858;10.128;2023-10-13T02:53:44;8.87;;;4.40;;
6376;SDS011;3221;48.858;10.128;2023-10-13T02:56:15;7.80;;;4.57;;
6376;SDS011;3221;48.858;10.128;2023-10-13T02:58:49;6.97;;;4.23;;
6376;SDS011;3221;48.858;10.128;2023-10-13T03:01:22;7.27;;;4.10;;
6376;SDS011;3221;48.858;10.128;2023-10-13T03:03:56;9.50;;;4.40;;
6376;SDS011;3221;48.858;10.128;2023-10-13T03:06:25;7.17;;;4.27;;
6376;SDS011;3221;48.858;10.128;2023-10-13T03:11:43;11.20;;;4.63;;
6376;SDS011;3221;48.858;10.128;2023-10-13T03:14:23;9.03;;;4.77;;
6376;SDS011;3221;48.858;10.128;2023-10-13T03:16:55;8.60;;;4.00;;
6376;SDS011;3221;48.858;10.128;2023-10-13T03:19:32;6.67;;;4.40;;
6376;SDS011;3221;48.858;10.128;2023-10-13T03:22:03;6.07;;;4.67;;
6376;SDS011;3221;48.858;10.128;2023-10-13T03:24:36;6.43;;;4.43;;
6376;SDS011;3221;48.858;10.128;2023-10-13T03:27:08;9.80;;;4.70;;
6376;SDS011;3221;48.858;10.128;2023-10-13T03:29:36;7.83;;;4.90;;
6376;SDS011;3221;48.858;10.128;2023-10-13T03:32:05;6.90;;;4.70;;
6376;SDS011;3221;48.858;10.128;2023-10-13T03:34:38;8.37;;;4.20;;
6376;SDS011;3221;48.858;10.128;2023-10-13T03:37:30;7.70;;;4.50;;
6376;SDS011;3221;48.858;10.128;2023-10-13T03:40:08;8.73;;;4.37;;
6376;SDS011;3221;48.858;10.128;2023-10-13T03:42:47;7.90;;;4.33;;
6376;SDS011;3221;48.858;10.128;2023-10-13T03:45:32;7.87;;;4.80;;
6376;SDS011;3221;48.858;10.128;2023-10-13T03:48:06;9.77;;;4.40;;
6376;SDS011;3221;48.858;10.128;2023-10-13T03:50:56;9.57;;;4.93;;
6376;SDS011;3221;48.858;10.128;2023-10-13T03:53:33;8.53;;;5.00;;
6376;SDS011;3221;48.858;10.128;2023-10-13T03:56:04;16.97;;;8.10;;
6376;SDS011;3221;48.858;10.128;2023-10-13T03:58:35;12.70;;;5.90;;
6376;SDS011;3221;48.858;10.128;2023-10-13T04:01:05;11.07;;;6.87;;
6376;SDS011;3221;48.858;10.128;2023-10-13T04:03:32;12.07;;;6.17;;
6376;SDS011;3221;48.858;10.128;2023-10-13T04:06:06;11.10;;;6.53;;
6376;SDS011;3221;48.858;10.128;2023-10-13T04:08:32;12.67;;;7.10;;
6376;SDS011;3221;48.858;10.128;2023-10-13T04:11:05;12.93;;;6.70;;
6376;SDS011;3221;48.858;10.128;2023-10-13T04:13:50;10.40;;;5.83;;
6376;SDS011;3221;48.858;10.128;2023-10-13T04:16:36;9.90;;;5.30;;
6376;SDS011;3221;48.858;10.128;2023-10-13T04:19:04;18.80;;;8.50;;
6376;SDS011;3221;48.858;10.128;2023-10-13T04:21:35;12.13;;;6.40;;
6376;SDS011;3221;48.858;10.128;2023-10-13T04:24:22;13.67;;;6.63;;
6376;SDS011;3221;48.858;10.128;2023-10-13T04:27:04;14.23;;;6.37;;
6376;SDS011;3221;48.858;10.128;2023-10-13T04:29:56;11.90;;;6.27;;
6376;SDS011;3221;48.858;10.128;2023-10-13T04:32:22;11.47;;;7.83;;
6376;SDS011;3221;48.858;10.128;2023-10-13T04:34:56;9.67;;;6.73;;
6376;SDS011;3221;48.858;10.128;2023-10-13T04:37:47;15.17;;;7.10;;
6376;SDS011;3221;48.858;10.128;2023-10-13T04:40:17;13.33;;;8.13;;
6376;SDS011;3221;48.858;10.128;2023-10-13T04:42:51;14.27;;;7.33;;
6376;SDS011;3221;48.858;10.128;2023-10-13T04:45:25;9.77;;;6.73;;
6376;SDS011;3221;48.858;10.128;2023-10-13T04:47:58;12.90;;;6.53;;
6376;SDS011;3221;48.858;10.128;2023-10-13T04:50:46;11.13;;;6.27;;
6376;SDS011;3221;48.858;10.128;2023-10-13T04:53:17;11.03;;;5.17;;
6376;SDS011;3221;48.858;10.128;2023-10-13T04:55:56;12.40;;;5.73;;
6376;SDS011;3221;48.858;10.128;2023-10-13T04:58:46;9.17;;;4.73;;
6376;SDS011;3221;48.858;10.128;2023-10-13T05:01:31;7.80;;;4.90;;
6376;SDS011;3221;48.858;10.128;2023-10-13T05:04:16;9.90;;;4.53;;
6376;SDS011;3221;48.858;10.128;2023-10-13T05:07:04;8.47;;;4.73;;
6376;SDS011;3221;48.858;10.128;2023-10-13T05:09:50;10.00;;;4.30;;
6376;SDS011;3221;48.858;10.128;2023-10-13T05:12:36;9.60;;;4.27;;
6376;SDS011;3221;48.858;10.128;2023-10-13T05:15:25;6.97;;;4.47;;
6376;SDS011;3221;48.858;10.128;2023-10-13T05:18:10;10.53;;;4.50;;
6376;SDS011;3221;48.858;10.128;2023-10-13T05:20:58;8.50;;;4.87;;
6376;SDS011;3221;48.858;10.128;2023-10-13T05:23:44;7.30;;;4.00;;
6376;SDS011;3221;48.858;10.128;2023-10-13T05:26:29;9.10;;;4.50;;
6376;SDS011;3221;48.858;10.128;2023-10-13T05:29:14;7.73;;;4.37;;
6376;SDS011;3221;48.858;10.128;2023-10-13T05:32:00;7.07;;;4.60;;
6376;SDS011;3221;48.858;10.128;2023-10-13T05:34:45;9.87;;;4.27;;
6376;SDS011;3221;48.858;10.128;2023-10-13T05:37:31;10.20;;;4.30;;
6376;SDS011;3221;48.858;10.128;2023-10-13T05:40:16;9.00;;;4.50;;
6376;SDS011;3221;48.858;10.128;2023-10-13T05:43:02;10.40;;;4.73;;
6376;SDS011;3221;48.858;10.128;2023-10-13T05:45:48;7.60;;;4.43;;
6376;SDS011;3221;48.858;10.128;2023-10-13T05:48:33;9.60;;;5.10;;
6376;SDS011;3221;48.858;10.128;2023-10-13T05:51:18;9.33;;;4.50;;
6376;SDS011;3221;48.858;10.128;2023-10-13T05:54:04;7.83;;;4.27;;
6376;SDS011;3221;48.858;10.128;2023-10-13T05:56:40;7.03;;;4.30;;
6376;SDS011;3221;48.858;10.128;2023-10-13T05:59:26;6.50;;;4.17;;
6376;SDS011;3221;48.858;10.128;2023-10-13T06:02:14;7.33;;;5.10;;
6376;SDS011;3221;48.858;10.128;2023-10-13T06:05:01;11.80;;;4.80;;
6376;SDS011;3221;48.858;10.128;2023-10-13T06:07:48;9.03;;;4.70;;
6376;SDS011;3221;48.858;10.128;2023-10-13T06:10:33;8.43;;;4.80;;
6376;SDS011;3221;48.858;10.128;2023-10-13T06:13:18;6.33;;;4.40;;
6376;SDS011;3221;48.858;10.128;2023-10-13T06:16:05;8.90;;;4.60;;
6376;SDS011;3221;48.858;10.128;2023-10-13T06:18:54;7.37;;;4.23;;
6376;SDS011;3221;48.858;10.128;2023-10-13T06:21:40;8.27;;;4.40;;
6376;SDS011;3221;48.858;10.128;2023-10-13T06:24:25;9.23;;;4.80;;
6376;SDS011;3221;48.858;10.128;2023-10-13T06:27:10;8.57;;;4.30;;
6376;SDS011;3221;48.858;10.128;2023-10-13T06:29:56;7.23;;;4.80;;
6376;SDS011;3221;48.858;10.128;2023-10-13T06:32:23;7.53;;;4.70;;
6376;SDS011;3221;48.858;10.128;2023-10-13T06:34:53;5.73;;;4.40;;
6376;SDS011;3221;48.858;10.128;2023-10-13T06:37:24;8.00;;;5.17;;
6376;SDS011;3221;48.858;10.128;2023-10-13T06:39:52;6.40;;;4.30;;
6376;SDS011;3221;48.858;10.128;2023-10-13T06:42:23;8.63;;;4.97;;
6376;SDS011;3221;48.858;10.128;2023-10-13T06:44:53;8.77;;;4.83;;
6376;SDS011;3221;48.858;10.128;2023-10-13T06:47:21;9.33;;;4.73;;
6376;SDS011;3221;48.858;10.128;2023-10-13T06:49:48;7.93;;;4.77;;
6376;SDS011;3221;48.858;10.128;2023-10-13T06:52:17;10.53;;;5.20;;
6376;SDS011;3221;48.858;10.128;2023-10-13T06:54:44;10.97;;;5.00;;
6376;SDS011;3221;48.858;10.128;2023-10-13T06:57:12;7.70;;;4.87;;
6376;SDS011;3221;48.858;10.128;2023-10-13T06:59:47;7.17;;;4.60;;
6376;SDS011;3221;48.858;10.128;2023-10-13T07:02:14;8.03;;;5.17;;
6376;SDS011;3221;48.858;10.128;2023-10-13T07:04:53;6.67;;;4.83;;
6376;SDS011;3221;48.858;10.128;2023-10-13T07:07:34;6.90;;;4.30;;
6376;SDS011;3221;48.858;10.128;2023-10-13T07:10:02;7.27;;;4.50;;
6376;SDS011;3221;48.858;10.128;2023-10-13T07:12:34;6.27;;;4.30;;
6376;SDS011;3221;48.858;10.128;2023-10-13T07:15:01;7.67;;;4.47;;
6376;SDS011;3221;48.858;10.128;2023-10-13T07:17:37;6.73;;;4.00;;
6376;SDS011;3221;48.858;10.128;2023-10-13T07:20:07;9.27;;;4.20;;
6376;SDS011;3221;48.858;10.128;2023-10-13T07:23:03;7.30;;;4.93;;
6376;SDS011;3221;48.858;10.128;2023-10-13T07:25:32;6.23;;;3.90;;
6376;SDS011;3221;48.858;10.128;2023-10-13T07:28:00;5.80;;;4.30;;
6376;SDS011;3221;48.858;10.128;2023-10-13T07:30:27;6.67;;;4.20;;
6376;SDS011;3221;48.858;10.128;2023-10-13T07:32:54;8.17;;;4.43;;
6376;SDS011;3221;48.858;10.128;2023-10-13T07:35:24;7.20;;;4.27;;
6376;SDS011;3221;48.858;10.128;2023-10-13T07:37:53;8.13;;;4.27;;
6376;SDS011;3221;48.858;10.128;2023-10-13T07:40:23;9.13;;;4.47;;
6376;SDS011;3221;48.858;10.128;2023-10-13T07:42:52;8.20;;;4.20;;
6376;SDS011;3221;48.858;10.128;2023-10-13T07:45:27;9.17;;;4.53;;
6376;SDS011;3221;48.858;10.128;2023-10-13T07:48:06;8.57;;;3.93;;
6376;SDS011;3221;48.858;10.128;2023-10-13T07:50:47;6.80;;;4.20;;
6376;SDS011;3221;48.858;10.128;2023-10-13T07:53:24;7.77;;;4.40;;
6376;SDS011;3221;48.858;10.128;2023-10-13T07:55:54;11.63;;;4.43;;
6376;SDS011;3221;48.858;10.128;2023-10-13T07:58:29;8.47;;;4.30;;
6376;SDS011;3221;48.858;10.128;2023-10-13T08:00:59;8.93;;;4.57;;
6376;SDS011;3221;48.858;10.128;2023-10-13T08:03:35;6.60;;;3.97;;
6376;SDS011;3221;48.858;10.128;2023-10-13T08:06:02;8.50;;;4.43;;
6376;SDS011;3221;48.858;10.128;2023-10-13T08:08:32;7.43;;;4.07;;
6376;SDS011;3221;48.858;10.128;2023-10-13T08:11:10;9.50;;;4.17;;
6376;SDS011;3221;48.858;10.128;2023-10-13T08:13:50;8.07;;;4.57;;
6376;SDS011;3221;48.858;10.128;2023-10-13T08:16:35;6.67;;;4.23;;
6376;SDS011;3221;48.858;10.128;2023-10-13T08:19:19;5.77;;;4.20;;
6376;SDS011;3221;48.858;10.128;2023-10-13T08:21:54;5.13;;;3.63;;
6376;SDS011;3221;48.858;10.128;2023-10-13T08:24:26;7.57;;;4.10;;
6376;SDS011;3221;48.858;10.128;2023-10-13T08:27:13;7.33;;;3.80;;
6376;SDS011;3221;48.858;10.128;2023-10-13T08:30:01;7.00;;;3.87;;
6376;SDS011;3221;48.858;10.128;2023-10-13T08:32:28;7.87;;;3.73;;
6376;SDS011;3221;48.858;10.128;2023-10-13T08:34:59;10.03;;;4.00;;
6376;SDS011;3221;48.858;10.128;2023-10-13T08:37:36;6.93;;;4.10;;
6376;SDS011;3221;48.858;10.128;2023-10-13T08:40:41;6.43;;;3.70;;
6376;SDS011;3221;48.858;10.128;2023-10-13T08:43:31;9.73;;;3.70;;
6376;SDS011;3221;48.858;10.128;2023-10-13T08:46:09;6.80;;;4.00;;
6376;SDS011;3221;48.858;10.128;2023-10-13T08:48:52;5.63;;;3.97;;
6376;SDS011;3221;48.858;10.128;2023-10-13T08:51:41;10.40;;;3.57;;
6376;SDS011;3221;48.858;10.128;2023-10-13T08:54:16;8.87;;;3.80;;
6376;SDS011;3221;48.858;10.128;2023-10-13T08:57:01;5.63;;;3.57;;
6376;SDS011;3221;48.858;10.128;2023-10-13T08:59:56;10.10;;;3.60;;
6376;SDS011;3221;48.858;10.128;2023-10-13T09:02:43;7.50;;;3.57;;
6376;SDS011;3221;48.858;10.128;2023-10-13T09:05:28;10.07;;;3.37;;
6376;SDS011;3221;48.858;10.128;2023-10-13T09:08:08;8.97;;;3.80;;
6376;SDS011;3221;48.858;10.128;2023-10-13T09:10:36;8.83;;;3.53;;
6376;SDS011;3221;48.858;10.128;2023-10-13T09:13:11;14.40;;;4.40;;
6376;SDS011;3221;48.858;10.128;2023-10-13T09:15:47;6.60;;;3.57;;
6376;SDS011;3221;48.858;10.128;2023-10-13T09:18:26;7.40;;;3.53;;
6376;SDS011;3221;48.858;10.128;2023-10-13T09:21:13;5.03;;;3.10;;
6376;SDS011;3221;48.858;10.128;2023-10-13T09:24:05;10.53;;;3.73;;
6376;SDS011;3221;48.858;10.128;2023-10-13T09:26:57;6.13;;;3.63;;
6376;SDS011;3221;48.858;10.128;2023-10-13T09:29:28;6.07;;;3.20;;
6376;SDS011;3221;48.858;10.128;2023-10-13T09:31:59;6.97;;;3.87;;
6376;SDS011;3221;48.858;10.128;2023-10-13T09:34:29;7.20;;;3.50;;
6376;SDS011;3221;48.858;10.128;2023-10-13T09:37:00;6.90;;;3.57;;
6376;SDS011;3221;48.858;10.128;2023-10-13T09:39:30;5.70;;;3.63;;
6376;SDS011;3221;48.858;10.128;2023-10-13T09:42:18;9.47;;;3.97;;
6376;SDS011;3221;48.858;10.128;2023-10-13T09:44:46;8.60;;;4.17;;
6376;SDS011;3221;48.858;10.128;2023-10-13T09:47:20;7.10;;;3.40;;
6376;SDS011;3221;48.858;10.128;2023-10-13T09:50:04;7.57;;;3.50;;
6376;SDS011;3221;48.858;10.128;2023-10-13T09:52:40;6.73;;;3.97;;
6376;SDS011;3221;48.858;10.128;2023-10-13T09:55:22;10.70;;;3.80;;
6376;SDS011;3221;48.858;10.128;2023-10-13T09:58:07;7.80;;;3.60;;
6376;SDS011;3221;48.858;10.128;2023-10-13T10:00:54;7.80;;;3.63;;
6376;SDS011;3221;48.858;10.128;2023-10-13T10:03:43;9.80;;;3.53;;
6376;SDS011;3221;48.858;10.128;2023-10-13T10:06:23;6.60;;;3.63;;
6376;SDS011;3221;48.858;10.128;2023-10-13T10:09:06;8.03;;;3.77;;
6376;SDS011;3221;48.858;10.128;2023-10-13T10:17:43;9.27;;;3.67;;
6376;SDS011;3221;48.858;10.128;2023-10-13T10:20:10;5.00;;;3.57;;
6376;SDS011;3221;48.858;10.128;2023-10-13T10:22:56;6.53;;;3.63;;
6376;SDS011;3221;48.858;10.128;2023-10-13T10:25:30;5.73;;;3.80;;
6376;SDS011;3221;48.858;10.128;2023-10-13T10:28:02;5.93;;;3.20;;
6376;SDS011;3221;48.858;10.128;2023-10-13T10:30:36;9.63;;;3.70;;
6376;SDS011;3221;48.858;10.128;2023-10-13T10:33:08;5.87;;;2.97;;
6376;SDS011;3221;48.858;10.128;2023-10-13T10:35:44;8.50;;;3.53;;
6376;SDS011;3221;48.858;10.128;2023-10-13T10:38:16;5.77;;;3.73;;
6376;SDS011;3221;48.858;10.128;2023-10-13T10:40:51;7.33;;;3.87;;
6376;SDS011;3221;48.858;10.128;2023-10-13T10:43:26;5.03;;;3.47;;
6376;SDS011;3221;48.858;10.128;2023-10-13T10:45:59;6.07;;;3.53;;
6376;SDS011;3221;48.858;10.128;2023-10-13T10:48:26;8.27;;;3.50;;
6376;SDS011;3221;48.858;10.128;2023-10-13T10:51:01;6.37;;;3.70;;
6376;SDS011;3221;48.858;10.128;2023-10-13T10:53:33;13.47;;;3.83;;
6376;SDS011;3221;48.858;10.128;2023-10-13T10:56:13;8.07;;;3.87;;
6376;SDS011;3221;48.858;10.128;2023-10-13T10:58:47;8.87;;;4.27;;
6376;SDS011;3221;48.858;10.128;2023-10-13T11:01:15;6.80;;;4.00;;
6376;SDS011;3221;48.858;10.128;2023-10-13T11:06:26;5.40;;;3.83;;
6376;SDS011;3221;48.858;10.128;2023-10-13T11:09:03;8.07;;;3.77;;
6376;SDS011;3221;48.858;10.128;2023-10-13T11:11:30;6.97;;;3.73;;
6376;SDS011;3221;48.858;10.128;2023-10-13T11:14:02;6.07;;;3.70;;
6376;SDS011;3221;48.858;10.128;2023-10-13T11:16:47;5.60;;;3.90;;
6376;SDS011;3221;48.858;10.128;2023-10-13T11:19:17;5.83;;;3.70;;
6376;SDS011;3221;48.858;10.128;2023-10-13T11:21:52;5.33;;;3.70;;
6376;SDS011;3221;48.858;10.128;2023-10-13T11:24:20;6.70;;;3.30;;
6376;SDS011;3221;48.858;10.128;2023-10-13T11:26:48;7.63;;;3.97;;
6376;SDS011;3221;48.858;10.128;2023-10-13T11:29:19;9.13;;;4.20;;
6376;SDS011;3221;48.858;10.128;2023-10-13T11:31:56;4.47;;;3.27;;
6376;SDS011;3221;48.858;10.128;2023-10-13T11:34:26;8.63;;;3.60;;
6376;SDS011;3221;48.858;10.128;2023-10-13T11:37:06;11.53;;;3.93;;
6376;SDS011;3221;48.858;10.128;2023-10-13T11:39:51;7.97;;;3.70;;
6376;SDS011;3221;48.858;10.128;2023-10-13T11:42:18;8.83;;;3.60;;
6376;SDS011;3221;48.858;10.128;2023-10-13T11:44:46;9.07;;;4.27;;
6376;SDS011;3221;48.858;10.128;2023-10-13T11:47:20;7.60;;;3.70;;
6376;SDS011;3221;48.858;10.128;2023-10-13T11:50:14;12.77;;;3.80;;
6376;SDS011;3221;48.858;10.128;2023-10-13T11:52:58;6.10;;;3.63;;
6376;SDS011;3221;48.858;10.128;2023-10-13T11:55:26;7.50;;;3.50;;
6376;SDS011;3221;48.858;10.128;2023-10-13T11:57:53;5.35;;;3.25;;
6376;SDS011;3221;48.858;10.128;2023-10-13T12:00:20;8.37;;;3.33;;
6376;SDS011;3221;48.858;10.128;2023-10-13T12:03:12;6.53;;;3.33;;
6376;SDS011;3221;48.858;10.128;2023-10-13T12:05:58;6.70;;;3.50;;
6376;SDS011;3221;48.858;10.128;2023-10-13T12:08:43;11.02;;;4.03;;
6376;SDS011;3221;48.858;10.128;2023-10-13T12:11:15;7.93;;;3.37;;
6376;SDS011;3221;48.858;10.128;2023-10-13T12:13:57;10.20;;;3.30;;
6376;SDS011;3221;48.858;10.128;2023-10-13T12:16:24;9.40;;;3.90;;
6376;SDS011;3221;48.858;10.128;2023-10-13T12:19:01;6.82;;;3.40;;
6376;SDS011;3221;48.858;10.128;2023-10-13T12:21:27;7.97;;;3.35;;
6376;SDS011;3221;48.858;10.128;2023-10-13T12:23:55;8.40;;;3.60;;
6376;SDS011;3221;48.858;10.128;2023-10-13T12:26:22;6.30;;;3.78;;
6376;SDS011;3221;48.858;10.128;2023-10-13T12:28:58;6.07;;;3.58;;
6376;SDS011;3221;48.858;10.128;2023-10-13T12:31:45;9.57;;;3.40;;
6376;SDS011;3221;48.858;10.128;2023-10-13T12:34:18;5.53;;;3.15;;
6376;SDS011;3221;48.858;10.128;2023-10-13T12:36:46;5.97;;;3.20;;
6376;SDS011;3221;48.858;10.128;2023-10-13T12:39:31;6.77;;;3.07;;
6376;SDS011;3221;48.858;10.128;2023-10-13T12:42:17;7.95;;;3.15;;
6376;SDS011;3221;48.858;10.128;2023-10-13T12:45:02;7.57;;;2.85;;
6376;SDS011;3221;48.858;10.128;2023-10-13T12:47:47;6.35;;;3.00;;
6376;SDS011;3221;48.858;10.128;2023-10-13T12:50:33;10.10;;;3.10;;
6376;SDS011;3221;48.858;10.128;2023-10-13T12:53:10;10.35;;;3.53;;
6376;SDS011;3221;48.858;10.128;2023-10-13T12:55:40;7.40;;;3.30;;
6376;SDS011;3221;48.858;10.128;2023-10-13T12:58:07;7.18;;;3.35;;
6376;SDS011;3221;48.858;10.128;2023-10-13T13:00:34;13.43;;;3.30;;
6376;SDS011;3221;48.858;10.128;2023-10-13T13:03:01;7.10;;;3.05;;
6376;SDS011;3221;48.858;10.128;2023-10-13T13:05:37;6.50;;;3.00;;
6376;SDS011;3221;48.858;10.128;2023-10-13T13:08:11;6.30;;;3.08;;
6376;SDS011;3221;48.858;10.128;2023-10-13T13:10:38;7.55;;;2.90;;
6376;SDS011;3221;48.858;10.128;2023-10-13T13:13:07;8.45;;;2.90;;
6376;SDS011;3221;48.858;10.128;2023-10-13T13:15:35;8.45;;;3.40;;
6376;SDS011;3221;48.858;10.128;2023-10-13T13:18:02;9.02;;;4.90;;
6376;SDS011;3221;48.858;10.128;2023-10-13T13:20:37;10.15;;;4.47;;
6376;SDS011;3221;48.858;10.128;2023-10-13T13:23:19;6.70;;;3.55;;
6376;SDS011;3221;48.858;10.128;2023-10-13T13:25:47;8.02;;;3.90;;
6376;SDS011;3221;48.858;10.128;2023-10-13T13:28:14;9.15;;;4.10;;
6376;SDS011;3221;48.858;10.128;2023-10-13T13:30:41;9.23;;;3.95;;
6376;SDS011;3221;48.858;10.128;2023-10-13T13:33:08;5.20;;;3.33;;
6376;SDS011;3221;48.858;10.128;2023-10-13T13:35:38;8.10;;;3.97;;
6376;SDS011;3221;48.858;10.128;2023-10-13T13:38:05;4.53;;;3.70;;
6376;SDS011;3221;48.858;10.128;2023-10-13T13:40:37;6.80;;;3.83;;
6376;SDS011;3221;48.858;10.128;2023-10-13T13:43:04;8.05;;;3.97;;
6376;SDS011;3221;48.858;10.128;2023-10-13T13:45:33;7.07;;;3.50;;
6376;SDS011;3221;48.858;10.128;2023-10-13T13:48:01;6.28;;;3.60;;
6376;SDS011;3221;48.858;10.128;2023-10-13T13:50:37;5.43;;;3.40;;
6376;SDS011;3221;48.858;10.128;2023-10-13T13:53:07;6.13;;;4.05;;
6376;SDS011;3221;48.858;10.128;2023-10-13T13:55:36;7.65;;;3.55;;
6376;SDS011;3221;48.858;10.128;2023-10-13T13:58:06;6.13;;;3.28;;
6376;SDS011;3221;48.858;10.128;2023-10-13T14:00:36;8.05;;;3.92;;
6376;SDS011;3221;48.858;10.128;2023-10-13T14:03:05;6.10;;;3.58;;
6376;SDS011;3221;48.858;10.128;2023-10-13T14:05:42;7.55;;;3.30;;
6376;SDS011;3221;48.858;10.128;2023-10-13T14:08:09;5.57;;;3.40;;
6376;SDS011;3221;48.858;10.128;2023-10-13T14:10:41;9.68;;;3.78;;
6376;SDS011;3221;48.858;10.128;2023-10-13T14:13:27;8.35;;;3.90;;
6376;SDS011;3221;48.858;10.128;2023-10-13T14:16:12;9.65;;;3.75;;
6376;SDS011;3221;48.858;10.128;2023-10-13T14:18:46;6.05;;;3.35;;
6376;SDS011;3221;48.858;10.128;2023-10-13T14:21:14;6.72;;;3.63;;
6376;SDS011;3221;48.858;10.128;2023-10-13T14:23:49;6.93;;;3.67;;
6376;SDS011;3221;48.858;10.128;2023-10-13T14:26:18;8.20;;;3.38;;
6376;SDS011;3221;48.858;10.128;2023-10-13T14:28:50;8.25;;;3.22;;
6376;SDS011;3221;48.858;10.128;2023-10-13T14:31:32;6.03;;;3.47;;
6376;SDS011;3221;48.858;10.128;2023-10-13T14:33:58;7.93;;;3.65;;
6376;SDS011;3221;48.858;10.128;2023-10-13T14:36:25;8.05;;;3.58;;
6376;SDS011;3221;48.858;10.128;2023-10-13T14:38:55;12.18;;;3.80;;
6376;SDS011;3221;48.858;10.128;2023-10-13T14:41:22;10.50;;;3.80;;
6376;SDS011;3221;48.858;10.128;2023-10-13T14:43:49;9.10;;;3.40;;
6376;SDS011;3221;48.858;10.128;2023-10-13T14:46:17;6.43;;;3.55;;
6376;SDS011;3221;48.858;10.128;2023-10-13T14:48:52;6.72;;;3.63;;
6376;SDS011;3221;48.858;10.128;2023-10-13T14:51:20;5.55;;;3.08;;
6376;SDS011;3221;48.858;10.128;2023-10-13T14:53:47;6.57;;;3.78;;
6376;SDS011;3221;48.858;10.128;2023-10-13T14:56:18;6.13;;;4.05;;
6376;SDS011;3221;48.858;10.128;2023-10-13T14:58:45;9.90;;;5.10;;
6376;SDS011;3221;48.858;10.128;2023-10-13T15:01:13;11.43;;;5.05;;
6376;SDS011;3221;48.858;10.128;2023-10-13T15:03:44;9.95;;;4.80;;
6376;SDS011;3221;48.858;10.128;2023-10-13T15:06:16;7.22;;;4.25;;
6376;SDS011;3221;48.858;10.128;2023-10-13T15:08:55;11.25;;;5.03;;
6376;SDS011;3221;48.858;10.128;2023-10-13T15:11:24;7.65;;;4.05;;
6376;SDS011;3221;48.858;10.128;2023-10-13T15:14:15;6.85;;;3.78;;
6376;SDS011;3221;48.858;10.128;2023-10-13T15:16:42;5.75;;;3.90;;
6376;SDS011;3221;48.858;10.128;2023-10-13T15:19:10;7.05;;;3.50;;
6376;SDS011;3221;48.858;10.128;2023-10-13T15:21:37;6.28;;;3.30;;
6376;SDS011;3221;48.858;10.128;2023-10-13T15:24:06;10.15;;;3.90;;
6376;SDS011;3221;48.858;10.128;2023-10-13T15:26:43;5.47;;;3.35;;
6376;SDS011;3221;48.858;10.128;2023-10-13T15:29:19;6.20;;;3.72;;
6376;SDS011;3221;48.858;10.128;2023-10-13T15:31:52;7.38;;;3.28;;
6376;SDS011;3221;48.858;10.128;2023-10-13T15:34:26;6.47;;;3.25;;
6376;SDS011;3221;48.858;10.128;2023-10-13T15:36:54;5.25;;;3.20;;
6376;SDS011;3221;48.858;10.128;2023-10-13T15:39:22;7.15;;;3.60;;
6376;SDS011;3221;48.858;10.128;2023-10-13T15:41:51;9.57;;;3.60;;
6376;SDS011;3221;48.858;10.128;2023-10-13T15:44:22;6.93;;;3.10;;
6376;SDS011;3221;48.858;10.128;2023-10-13T15:46:54;8.52;;;3.63;;
6376;SDS011;3221;48.858;10.128;2023-10-13T15:49:25;6.45;;;4.10;;
6376;SDS011;3221;48.858;10.128;2023-10-13T15:51:55;9.07;;;5.85;;
6376;SDS011;3221;48.858;10.128;2023-10-13T15:54:24;8.23;;;4.45;;
6376;SDS011;3221;48.858;10.128;2023-10-13T15:56:51;6.63;;;4.47;;
6376;SDS011;3221;48.858;10.128;2023-10-13T15:59:18;6.63;;;4.20;;
6376;SDS011;3221;48.858;10.128;2023-10-13T16:01:45;8.48;;;4.05;;